createdAt,value
2023-01-22T00:01:16.412Z,82.97
2023-01-22T00:03:46.572Z,85.83
2023-01-22T00:06:14.796Z,89.63
2023-01-22T00:08:41.889Z,81.33
2023-01-22T00:11:10.369Z,81.57
2023-01-22T00:13:37.433Z,86.77
2023-01-22T00:16:04.791Z,88.17
2023-01-22T00:18:32.217Z,85.07
2023-01-22T00:20:59.511Z,89.33
2023-01-22T00:23:26.731Z,84.80
2023-01-22T00:26:05.192Z,85.00
2023-01-22T00:28:32.621Z,88.50
2023-01-22T00:31:05.055Z,85.93
2023-01-22T00:33:33.564Z,92.93
2023-01-22T00:36:07.477Z,92.97
2023-01-22T00:38:35.059Z,81.30
2023-01-22T00:41:03.763Z,85.37
2023-01-22T00:43:31.892Z,87.33
2023-01-22T00:45:59.048Z,86.10
2023-01-22T00:48:27.442Z,83.60
2023-01-22T00:50:54.625Z,83.43
2023-01-22T00:53:21.666Z,81.60
2023-01-22T00:55:52.729Z,75.03
2023-01-22T00:58:20.482Z,79.70
2023-01-22T01:00:47.900Z,74.37
2023-01-22T01:03:27.208Z,73.13
2023-01-22T01:06:02.689Z,72.07
2023-01-22T01:08:32.508Z,78.20
2023-01-22T01:11:05.375Z,72.90
2023-01-22T01:13:38.266Z,77.53
2023-01-22T01:16:14.632Z,75.03
2023-01-22T01:18:42.197Z,75.50
2023-01-22T01:21:09.940Z,79.77
2023-01-22T01:23:37.264Z,80.23
2023-01-22T01:26:11.553Z,74.70
2023-01-22T01:28:41.572Z,76.00
2023-01-22T01:31:11.700Z,77.77
2023-01-22T01:33:39.600Z,76.30
2023-01-22T01:36:11.165Z,73.07
2023-01-22T01:38:38.400Z,73.93
2023-01-22T01:41:06.409Z,74.43
2023-01-22T01:43:35.388Z,78.37
2023-01-22T01:46:04.835Z,73.57
2023-01-22T01:48:39.360Z,80.23
2023-01-22T01:51:19.986Z,83.10
2023-01-22T01:53:49.448Z,82.57
2023-01-22T01:56:25.294Z,84.87
2023-01-22T01:58:58.995Z,81.57
2023-01-22T02:01:27.681Z,79.37
2023-01-22T02:03:55.607Z,82.20
2023-01-22T02:06:22.905Z,77.53
2023-01-22T02:08:50.835Z,76.60
2023-01-22T02:11:20.465Z,73.53
2023-01-22T02:14:13.567Z,71.53
2023-01-22T02:16:40.708Z,66.93
2023-01-22T02:19:08.017Z,68.27
2023-01-22T02:21:38.101Z,64.57
2023-01-22T02:24:08.767Z,72.27
2023-01-22T02:26:37.359Z,68.93
2023-01-22T02:29:08.417Z,71.83
2023-01-22T02:31:37.566Z,74.27
2023-01-22T02:34:06.101Z,69.53
2023-01-22T02:36:35.352Z,74.37
2023-01-22T02:39:03.330Z,60.50
2023-01-22T02:41:31.852Z,72.37
2023-01-22T02:44:00.060Z,69.53
2023-01-22T02:46:27.493Z,73.83
2023-01-22T02:48:54.660Z,73.37
2023-01-22T02:51:22.484Z,65.10
2023-01-22T02:53:50.630Z,69.03
2023-01-22T02:56:18.564Z,70.63
2023-01-22T02:58:45.725Z,66.10
2023-01-22T03:01:20.786Z,64.27
2023-01-22T03:03:59.176Z,69.67
2023-01-22T03:06:28.607Z,64.10
2023-01-22T03:09:00.813Z,64.77
2023-01-22T03:11:31.108Z,62.97
2023-01-22T03:14:23.814Z,63.77
2023-01-22T03:17:12.307Z,59.53
2023-01-22T03:19:58.570Z,58.70
2023-01-22T03:22:26.024Z,60.50
2023-01-22T03:24:53.791Z,58.50
2023-01-22T03:27:25.927Z,59.43
2023-01-22T03:29:53.879Z,60.10
2023-01-22T03:32:21.868Z,56.20
2023-01-22T03:34:49.558Z,61.90
2023-01-22T03:37:16.959Z,52.37
2023-01-22T03:39:46.775Z,52.57
2023-01-22T03:42:25.157Z,47.27
2023-01-22T03:44:52.506Z,52.50
2023-01-22T03:47:19.828Z,49.63
2023-01-22T03:49:46.975Z,51.17
2023-01-22T03:52:13.940Z,46.47
2023-01-22T03:54:40.998Z,50.53
2023-01-22T03:57:09.869Z,47.73
2023-01-22T03:59:39.463Z,44.60
2023-01-22T04:02:07.571Z,44.20
2023-01-22T04:04:45.157Z,46.90
2023-01-22T04:07:12.846Z,41.93
2023-01-22T04:09:40.188Z,45.70
2023-01-22T04:12:08.598Z,46.40
2023-01-22T04:14:35.683Z,45.83
2023-01-22T04:17:03.884Z,42.17
2023-01-22T04:19:51.807Z,46.03
2023-01-22T04:22:39.123Z,42.00
2023-01-22T04:25:09.456Z,46.57
2023-01-22T04:27:37.969Z,39.23
2023-01-22T04:30:06.585Z,44.93
2023-01-22T04:32:34.592Z,42.33
2023-01-22T04:35:27.861Z,44.50
2023-01-22T04:37:58.515Z,44.40
2023-01-22T04:40:27.126Z,44.37
2023-01-22T04:42:55.372Z,42.70
2023-01-22T04:45:23.779Z,47.27
2023-01-22T04:47:51.021Z,39.00
2023-01-22T04:50:24.307Z,45.67
2023-01-22T04:52:52.234Z,43.20
2023-01-22T04:55:20.589Z,47.40
2023-01-22T04:57:58.020Z,45.40
2023-01-22T05:00:26.416Z,46.37
2023-01-22T05:03:01.824Z,42.40
2023-01-22T05:05:30.807Z,36.87
2023-01-22T05:07:59.726Z,43.87
2023-01-22T05:10:28.363Z,42.80
2023-01-22T05:12:55.859Z,43.40
2023-01-22T05:15:25.308Z,44.63
2023-01-22T05:17:56.420Z,42.03
2023-01-22T05:20:23.876Z,42.07
2023-01-22T05:22:51.643Z,39.53
2023-01-22T05:25:23.511Z,38.63
2023-01-22T05:27:50.852Z,41.80
2023-01-22T05:30:30.703Z,41.23
2023-01-22T05:33:01.021Z,40.43
2023-01-22T05:35:29.430Z,40.77
2023-01-22T05:37:57.541Z,39.97
2023-01-22T05:40:24.857Z,39.17
2023-01-22T05:42:53.023Z,42.70
2023-01-22T05:45:22.448Z,40.47
2023-01-22T05:48:13.025Z,36.13
2023-01-22T05:50:49.573Z,35.07
2023-01-22T05:53:16.734Z,43.00
2023-01-22T05:55:43.741Z,41.20
2023-01-22T05:58:11.013Z,41.90
2023-01-22T06:00:42.077Z,41.40
2023-01-22T06:03:11.646Z,37.23
2023-01-22T06:05:46.611Z,43.53
2023-01-22T06:08:15.524Z,41.10
2023-01-22T06:10:49.848Z,38.27
2023-01-22T06:13:18.510Z,43.23
2023-01-22T06:15:49.107Z,45.63
2023-01-22T06:18:36.636Z,43.00
2023-01-22T06:21:06.395Z,29.63
2023-01-22T06:23:34.002Z,35.37
2023-01-22T06:26:02.216Z,42.20
2023-01-22T06:28:30.426Z,38.70
2023-01-22T06:31:05.765Z,39.63
2023-01-22T06:33:37.681Z,38.50
2023-01-22T06:36:06.040Z,35.97
2023-01-22T06:38:33.566Z,40.17
2023-01-22T06:41:03.818Z,37.53
2023-01-22T06:43:32.613Z,39.93
2023-01-22T06:45:59.764Z,39.53
2023-01-22T06:49:02.785Z,39.07
2023-01-22T06:51:30.466Z,36.87
2023-01-22T06:53:57.762Z,41.27
2023-01-22T06:56:24.949Z,39.07
2023-01-22T06:58:52.163Z,39.60
2023-01-22T07:01:19.513Z,36.23
2023-01-22T07:03:46.730Z,38.50
2023-01-22T07:06:15.072Z,37.20
2023-01-22T07:08:42.113Z,32.90
2023-01-22T07:11:09.827Z,34.93
2023-01-22T07:13:36.789Z,35.83
2023-01-22T07:16:05.077Z,34.87
2023-01-22T07:18:32.533Z,37.37
2023-01-22T07:21:04.130Z,34.43
2023-01-22T07:23:31.984Z,38.00
2023-01-22T07:25:59.206Z,35.50
2023-01-22T07:28:26.237Z,41.10
2023-01-22T07:30:53.342Z,40.33
2023-01-22T07:33:20.579Z,40.40
2023-01-22T07:35:57.687Z,36.10
2023-01-22T07:38:27.527Z,38.37
2023-01-22T07:40:59.835Z,36.27
2023-01-22T07:43:26.852Z,40.73
2023-01-22T07:45:54.161Z,37.83
2023-01-22T07:48:21.326Z,37.83
2023-01-22T07:50:48.427Z,39.43
2023-01-22T07:53:15.576Z,42.43
2023-01-22T07:55:42.691Z,41.20
2023-01-22T07:58:11.237Z,37.80
2023-01-22T08:00:38.303Z,39.77
2023-01-22T08:03:06.166Z,36.37
2023-01-22T08:05:33.429Z,39.60
2023-01-22T08:08:00.643Z,36.50
2023-01-22T08:10:27.977Z,40.40
2023-01-22T08:12:55.029Z,38.03
2023-01-22T08:15:22.685Z,40.83
2023-01-22T08:17:51.342Z,39.77
2023-01-22T08:20:19.145Z,40.83
2023-01-22T08:22:46.719Z,45.10
2023-01-22T08:25:13.916Z,47.70
2023-01-22T08:27:41.123Z,40.43
2023-01-22T08:30:11.428Z,38.70
2023-01-22T08:32:41.446Z,36.30
2023-01-22T08:35:09.302Z,38.60
2023-01-22T08:37:36.778Z,42.23
2023-01-22T08:40:05.353Z,39.20
2023-01-22T08:42:32.867Z,38.53
2023-01-22T08:45:00.052Z,41.47
2023-01-22T08:47:27.609Z,37.00
2023-01-22T08:49:54.576Z,41.13
2023-01-22T08:52:21.766Z,43.47
2023-01-22T08:54:49.000Z,40.67
2023-01-22T08:57:17.617Z,43.37
2023-01-22T08:59:52.550Z,42.43
2023-01-22T09:02:28.079Z,37.20
2023-01-22T09:04:55.287Z,35.67
2023-01-22T09:07:22.378Z,43.80
2023-01-22T09:09:49.608Z,38.97
2023-01-22T09:12:16.796Z,42.87
2023-01-22T09:14:44.859Z,39.27
2023-01-22T09:17:11.891Z,40.27
2023-01-22T09:19:38.902Z,41.17
2023-01-22T09:22:07.651Z,41.13
2023-01-22T09:24:34.703Z,38.47
2023-01-22T09:27:01.837Z,40.13
2023-01-22T09:29:29.097Z,42.60
2023-01-22T09:31:57.205Z,40.77
2023-01-22T09:34:24.339Z,44.37
2023-01-22T09:36:51.502Z,39.20
2023-01-22T09:39:18.698Z,38.97
2023-01-22T09:42:00.419Z,36.27
2023-01-22T09:44:38.581Z,47.67
2023-01-22T09:47:12.551Z,45.23
2023-01-22T09:50:05.568Z,49.37
2023-01-22T09:52:36.785Z,49.50
2023-01-22T09:55:06.206Z,44.37
2023-01-22T09:57:33.294Z,49.40
2023-01-22T10:00:00.571Z,48.67
2023-01-22T10:02:30.815Z,46.47
2023-01-22T10:05:23.771Z,43.13
2023-01-22T10:08:16.786Z,37.40
2023-01-22T10:10:43.939Z,44.57
2023-01-22T10:13:23.141Z,48.83
2023-01-22T10:15:56.789Z,43.97
2023-01-22T10:18:43.007Z,51.07
2023-01-22T10:21:26.525Z,49.00
2023-01-22T10:23:56.949Z,49.27
2023-01-22T10:26:38.431Z,47.87
2023-01-22T10:29:09.491Z,51.30
2023-01-22T10:31:41.204Z,51.20
2023-01-22T10:34:16.078Z,48.00
2023-01-22T10:36:50.596Z,50.20
2023-01-22T10:39:19.090Z,52.13
2023-01-22T10:41:47.363Z,49.67
2023-01-22T10:44:17.385Z,55.63
2023-01-22T10:46:46.552Z,48.27
2023-01-22T10:49:25.284Z,51.50
2023-01-22T10:51:56.212Z,47.37
2023-01-22T10:54:29.847Z,49.00
2023-01-22T10:57:17.353Z,59.83
2023-01-22T11:00:04.508Z,57.70
2023-01-22T11:02:35.510Z,60.93
2023-01-22T11:05:21.104Z,53.40
2023-01-22T11:08:10.032Z,57.27
2023-01-22T11:10:51.900Z,53.50
2023-01-22T11:13:50.875Z,50.83
2023-01-22T11:16:20.759Z,58.90
2023-01-22T11:19:16.774Z,52.00
2023-01-22T11:21:54.878Z,55.07
2023-01-22T11:24:33.402Z,57.50
2023-01-22T11:27:13.145Z,58.30
2023-01-22T11:29:58.516Z,58.63
2023-01-22T11:32:52.434Z,60.30
2023-01-22T11:35:25.926Z,64.63
2023-01-22T11:38:15.888Z,75.17
2023-01-22T11:41:07.103Z,63.13
2023-01-22T11:43:55.865Z,72.73
2023-01-22T11:46:23.098Z,67.93
2023-01-22T11:49:19.597Z,69.70
2023-01-22T11:51:54.840Z,67.80
2023-01-22T11:54:51.233Z,73.73
2023-01-22T11:57:24.628Z,84.93
2023-01-22T12:00:28.959Z,85.63
2023-01-22T12:03:14.119Z,106.63
2023-01-22T12:06:12.967Z,92.57
2023-01-22T12:09:00.427Z,91.80
2023-01-22T12:11:34.766Z,91.27
2023-01-22T12:14:37.169Z,81.87
2023-01-22T12:17:22.282Z,74.73
2023-01-22T12:20:34.037Z,86.37
2023-01-22T12:23:07.029Z,117.47
2023-01-22T12:25:40.861Z,99.27
2023-01-22T12:28:29.241Z,118.83
2023-01-22T12:31:08.562Z,90.40
2023-01-22T12:33:41.320Z,95.73
2023-01-22T12:36:16.500Z,103.60
2023-01-22T12:38:53.976Z,120.47
2023-01-22T12:41:52.612Z,107.27
2023-01-22T12:44:28.840Z,104.13
2023-01-22T12:46:58.757Z,82.90
2023-01-22T12:49:26.902Z,106.93
2023-01-22T12:51:55.661Z,94.67
2023-01-22T12:54:37.647Z,100.83
2023-01-22T12:57:20.811Z,100.40
2023-01-22T12:59:56.482Z,111.60
2023-01-22T13:02:30.545Z,138.47
2023-01-22T13:05:19.621Z,154.77
2023-01-22T13:07:47.639Z,114.03
2023-01-22T13:10:22.841Z,110.27
2023-01-22T13:13:00.962Z,143.90
2023-01-22T13:15:34.042Z,161.33
2023-01-22T13:18:08.039Z,121.07
2023-01-22T13:20:45.771Z,140.67
2023-01-22T13:23:14.979Z,108.20
2023-01-22T13:25:43.096Z,116.17
2023-01-22T13:28:17.053Z,114.57
2023-01-22T13:30:44.771Z,127.27
2023-01-22T13:33:16.578Z,105.63
2023-01-22T13:35:46.006Z,107.10
2023-01-22T13:38:20.617Z,108.63
2023-01-22T13:40:58.958Z,105.57
2023-01-22T13:43:27.543Z,106.90
2023-01-22T13:45:58.475Z,106.40
2023-01-22T13:48:27.334Z,91.93
2023-01-22T13:50:57.937Z,88.43
2023-01-22T13:53:30.248Z,99.20
2023-01-22T13:55:58.068Z,87.97
2023-01-22T13:58:49.382Z,87.43
2023-01-22T14:01:46.555Z,95.73
2023-01-22T14:04:34.897Z,86.30
2023-01-22T14:07:02.245Z,87.43
2023-01-22T14:09:37.684Z,84.03
2023-01-22T14:12:22.737Z,82.33
2023-01-22T14:14:50.111Z,76.33
2023-01-22T14:17:35.460Z,70.97
2023-01-22T14:20:04.485Z,82.63
2023-01-22T14:22:31.603Z,80.17
2023-01-22T14:24:58.744Z,90.43
2023-01-22T14:27:49.669Z,83.27
2023-01-22T14:30:19.586Z,88.27
2023-01-22T14:32:47.122Z,91.83
2023-01-22T14:35:22.622Z,103.90
2023-01-22T14:37:50.314Z,87.27
2023-01-22T14:40:19.095Z,96.63
2023-01-22T14:42:47.027Z,93.87
2023-01-22T14:45:16.612Z,95.60
2023-01-22T14:47:44.122Z,100.00
2023-01-22T14:50:11.848Z,95.63
2023-01-22T14:52:39.144Z,89.60
2023-01-22T14:55:06.562Z,103.57
2023-01-22T14:57:33.623Z,91.33
2023-01-22T15:00:02.522Z,89.80
2023-01-22T15:02:29.688Z,111.57
2023-01-22T15:04:56.918Z,99.33
2023-01-22T15:07:23.988Z,105.57
2023-01-22T15:09:51.005Z,109.47
2023-01-22T15:12:18.460Z,93.00
2023-01-22T15:14:45.545Z,105.40
2023-01-22T15:17:12.495Z,113.87
2023-01-22T15:19:41.586Z,161.80
2023-01-22T15:22:09.421Z,101.97
2023-01-22T15:24:39.405Z,101.93
2023-01-22T15:27:07.308Z,89.03
2023-01-22T15:29:34.308Z,102.30
2023-01-22T15:32:01.429Z,93.63
2023-01-22T15:34:28.444Z,90.30
2023-01-22T15:36:55.546Z,106.87
2023-01-22T15:39:22.680Z,100.23
2023-01-22T15:41:49.848Z,101.73
2023-01-22T15:44:16.909Z,109.37
2023-01-22T15:46:44.603Z,98.40
2023-01-22T15:49:13.243Z,109.20
2023-01-22T15:51:41.515Z,100.73
2023-01-22T15:54:13.200Z,91.63
2023-01-22T15:56:40.481Z,96.30
2023-01-22T15:59:07.777Z,110.97
2023-01-22T16:01:35.563Z,103.77
2023-01-22T16:04:03.907Z,98.03
2023-01-22T16:06:33.409Z,95.90
2023-01-22T16:09:02.761Z,94.43
2023-01-22T16:11:30.997Z,92.33
2023-01-22T16:13:59.265Z,96.00
2023-01-22T16:16:36.433Z,105.43
2023-01-22T16:19:06.364Z,104.37
2023-01-22T16:21:33.834Z,90.00
2023-01-22T16:24:01.864Z,103.13
2023-01-22T16:26:31.553Z,105.23
2023-01-22T16:29:00.507Z,84.87
2023-01-22T16:31:30.761Z,93.77
2023-01-22T16:34:00.476Z,98.57
2023-01-22T16:36:29.839Z,90.57
2023-01-22T16:38:56.971Z,89.97
2023-01-22T16:41:28.015Z,101.43
2023-01-22T16:44:17.145Z,95.77
2023-01-22T16:46:49.627Z,98.60
2023-01-22T16:49:19.687Z,89.80
2023-01-22T16:51:52.526Z,85.63
2023-01-22T16:54:29.887Z,85.53
2023-01-22T16:56:58.921Z,90.67
2023-01-22T16:59:27.294Z,95.03
2023-01-22T17:01:55.650Z,93.40
2023-01-22T17:04:22.890Z,88.13
2023-01-22T17:06:52.549Z,85.90
2023-01-22T17:09:26.678Z,96.73
2023-01-22T17:11:56.676Z,96.50
2023-01-22T17:14:26.577Z,89.90
2023-01-22T17:16:53.672Z,100.73
2023-01-22T17:19:20.613Z,81.40
2023-01-22T17:21:50.273Z,86.27
2023-01-22T17:24:17.556Z,91.17
2023-01-22T17:26:45.975Z,86.47
2023-01-22T17:29:14.045Z,102.33
2023-01-22T17:31:41.448Z,85.50
2023-01-22T17:34:11.086Z,78.80
2023-01-22T17:36:39.542Z,95.47
2023-01-22T17:39:07.539Z,91.53
2023-01-22T17:41:34.738Z,101.23
2023-01-22T17:44:01.958Z,103.27
2023-01-22T17:46:32.037Z,107.53
2023-01-22T17:49:01.191Z,92.23
2023-01-22T17:51:30.530Z,96.37
2023-01-22T17:53:59.324Z,82.40
2023-01-22T17:56:40.285Z,94.67
2023-01-22T17:59:12.069Z,88.80
2023-01-22T18:01:40.530Z,100.97
2023-01-22T18:04:12.045Z,99.83
2023-01-22T18:06:40.808Z,104.30
2023-01-22T18:09:10.029Z,91.90
2023-01-22T18:11:38.029Z,120.70
2023-01-22T18:14:08.415Z,99.13
2023-01-22T18:16:38.349Z,95.77
2023-01-22T18:19:07.527Z,90.97
2023-01-22T18:21:36.178Z,97.93
2023-01-22T18:24:05.368Z,96.43
2023-01-22T18:26:32.641Z,96.83
2023-01-22T18:29:00.132Z,90.70
2023-01-22T18:31:28.878Z,93.10
2023-01-22T18:34:01.170Z,94.67
2023-01-22T18:36:31.335Z,83.60
2023-01-22T18:39:04.126Z,89.47
2023-01-22T18:41:31.495Z,93.87
2023-01-22T18:44:01.644Z,93.53
2023-01-22T18:46:33.811Z,89.40
2023-01-22T18:49:04.032Z,92.00
2023-01-22T18:51:33.045Z,94.17
2023-01-22T18:54:01.947Z,89.73
2023-01-22T18:56:28.900Z,88.63
2023-01-22T18:58:57.521Z,88.23
2023-01-22T19:01:30.900Z,93.30
2023-01-22T19:04:01.077Z,92.13
2023-01-22T19:06:31.140Z,81.93
2023-01-22T19:09:07.243Z,90.07
2023-01-22T19:11:37.249Z,96.70
2023-01-22T19:14:07.277Z,89.70
2023-01-22T19:16:34.918Z,91.27
2023-01-22T19:19:11.456Z,82.23
2023-01-22T19:21:40.438Z,83.27
2023-01-22T19:24:08.883Z,82.77
2023-01-22T19:26:37.277Z,85.37
2023-01-22T19:29:13.471Z,88.67
2023-01-22T19:31:43.314Z,87.33
2023-01-22T19:34:12.952Z,85.70
2023-01-22T19:36:40.139Z,81.77
2023-01-22T19:39:12.333Z,77.10
2023-01-22T19:41:42.973Z,82.63
2023-01-22T19:44:11.490Z,77.80
2023-01-22T19:46:39.684Z,81.10
2023-01-22T19:49:08.091Z,85.97
2023-01-22T19:51:35.406Z,86.73
2023-01-22T19:54:04.756Z,78.90
2023-01-22T19:56:35.839Z,79.27
2023-01-22T19:59:14.613Z,87.93
2023-01-22T20:01:42.759Z,76.87
2023-01-22T20:04:14.462Z,78.27
2023-01-22T20:06:41.792Z,88.27
2023-01-22T20:09:08.868Z,83.63
2023-01-22T20:11:35.963Z,90.37
2023-01-22T20:14:03.240Z,85.23
2023-01-22T20:16:30.548Z,90.93
2023-01-22T20:18:58.490Z,92.77
2023-01-22T20:21:27.036Z,82.40
2023-01-22T20:23:54.959Z,79.63
2023-01-22T20:26:23.095Z,94.90
2023-01-22T20:28:50.606Z,88.33
2023-01-22T20:31:23.161Z,89.97
2023-01-22T20:33:52.675Z,87.63
2023-01-22T20:36:21.183Z,77.40
2023-01-22T20:38:52.531Z,85.47
2023-01-22T20:41:20.961Z,88.80
2023-01-22T20:43:48.332Z,92.00
2023-01-22T20:46:19.812Z,85.47
2023-01-22T20:48:47.538Z,85.13
2023-01-22T20:51:17.749Z,75.50
2023-01-22T20:53:46.500Z,83.73
2023-01-22T20:56:16.791Z,84.80
2023-01-22T20:58:44.074Z,79.43
2023-01-22T21:01:18.743Z,79.57
2023-01-22T21:03:47.568Z,78.40
2023-01-22T21:06:17.248Z,75.33
2023-01-22T21:08:47.695Z,82.87
2023-01-22T21:11:18.007Z,79.43
2023-01-22T21:13:45.231Z,85.00
2023-01-22T21:16:17.719Z,81.47
2023-01-22T21:18:46.398Z,79.97
2023-01-22T21:21:18.068Z,73.93
2023-01-22T21:23:47.922Z,70.93
2023-01-22T21:26:22.948Z,76.10
2023-01-22T21:28:53.566Z,77.07
2023-01-22T21:31:21.967Z,73.97
2023-01-22T21:33:49.680Z,76.20
2023-01-22T21:36:18.476Z,73.40
2023-01-22T21:38:48.748Z,71.67
2023-01-22T21:41:17.807Z,68.13
2023-01-22T21:44:06.189Z,64.70
2023-01-22T21:46:40.673Z,66.60
2023-01-22T21:49:24.465Z,64.97
2023-01-22T21:51:57.274Z,62.77
2023-01-22T21:54:29.842Z,65.03
2023-01-22T21:56:57.223Z,60.13
2023-01-22T21:59:24.932Z,68.13
2023-01-22T22:01:54.775Z,65.17
2023-01-22T22:04:24.503Z,62.00
2023-01-22T22:06:52.112Z,64.13
2023-01-22T22:09:22.171Z,62.07
2023-01-22T22:11:49.646Z,63.77
2023-01-22T22:14:21.876Z,60.77
2023-01-22T22:16:49.416Z,61.60
2023-01-22T22:19:17.639Z,65.97
2023-01-22T22:21:45.246Z,61.40
2023-01-22T22:24:12.757Z,62.77
2023-01-22T22:26:40.732Z,62.90
2023-01-22T22:29:09.143Z,64.20
2023-01-22T22:31:37.359Z,57.50
2023-01-22T22:34:05.211Z,65.00
2023-01-22T22:36:33.187Z,55.10
2023-01-22T22:39:01.705Z,60.23
2023-01-22T22:41:31.054Z,65.33
2023-01-22T22:43:58.450Z,61.40
2023-01-22T22:46:28.206Z,69.23
2023-01-22T22:48:57.790Z,62.73
2023-01-22T22:51:32.096Z,64.23
2023-01-22T22:54:05.561Z,65.67
2023-01-22T22:56:32.802Z,61.97
2023-01-22T22:59:01.351Z,64.77
2023-01-22T23:01:29.500Z,59.13
2023-01-22T23:03:56.676Z,63.93
2023-01-22T23:06:29.766Z,66.77
2023-01-22T23:09:10.954Z,71.37
2023-01-22T23:11:38.266Z,60.97
2023-01-22T23:14:05.697Z,65.93
2023-01-22T23:16:38.878Z,61.37
2023-01-22T23:19:09.221Z,63.33
2023-01-22T23:21:40.780Z,58.80
2023-01-22T23:24:12.953Z,58.87
2023-01-22T23:26:41.604Z,64.63
2023-01-22T23:29:11.148Z,52.23
2023-01-22T23:31:39.457Z,62.30
2023-01-22T23:34:10.099Z,56.93
2023-01-22T23:36:38.776Z,58.77
2023-01-22T23:39:05.775Z,56.40
2023-01-22T23:41:32.900Z,60.10
2023-01-22T23:43:59.946Z,58.57
2023-01-22T23:46:28.566Z,62.77
2023-01-22T23:48:57.675Z,63.43
2023-01-22T23:51:25.586Z,54.07
2023-01-22T23:53:53.697Z,63.03
2023-01-22T23:56:23.331Z,56.57
2023-01-22T23:58:53.091Z,59.03
